sensor_id;sensor_type;location;lat;lon;timestamp;pressure;altitude;pressure_sealevel;temperature;humidity
59971;BME280;45825;45.434;9.116;2023-04-23T00:01:57;100015.59;;;15.73;100.00
59971;BME280;45825;45.434;9.116;2023-04-23T00:04:24;100009.47;;;15.72;100.00
59971;BME280;45825;45.434;9.116;2023-04-23T00:06:50;100012.59;;;15.66;100.00
59971;BME280;45825;45.434;9.116;2023-04-23T00:09:17;100013.56;;;15.65;100.00
59971;BME280;45825;45.434;9.116;2023-04-23T00:11:43;100020.19;;;15.71;100.00
59971;BME280;45825;45.434;9.116;2023-04-23T00:14:09;100015.84;;;15.70;100.00
59971;BME280;45825;45.434;9.116;2023-04-23T00:16:34;100008.88;;;15.69;100.00
59971;BME280;45825;45.434;9.116;2023-04-23T00:19:00;100012.13;;;15.72;100.00
59971;BME280;45825;45.434;9.116;2023-04-23T00:21:25;100009.56;;;15.71;100.00
59971;BME280;45825;45.434;9.116;2023-04-23T00:23:51;100013.31;;;15.68;100.00
59971;BME280;45825;45.434;9.116;2023-04-23T00:26:17;100014.75;;;15.72;100.00
59971;BME280;45825;45.434;9.116;2023-04-23T00:28:42;100011.97;;;15.74;100.00
59971;BME280;45825;45.434;9.116;2023-04-23T00:31:07;100002.59;;;15.70;100.00
59971;BME280;45825;45.434;9.116;2023-04-23T00:33:33;100006.66;;;15.74;100.00
59971;BME280;45825;45.434;9.116;2023-04-23T00:35:58;100010.88;;;15.76;100.00
59971;BME280;45825;45.434;9.116;2023-04-23T00:38:23;100004.88;;;15.74;100.00
59971;BME280;45825;45.434;9.116;2023-04-23T00:40:50;100009.09;;;15.77;100.00
59971;BME280;45825;45.434;9.116;2023-04-23T00:43:16;100004.28;;;15.71;100.00
59971;BME280;45825;45.434;9.116;2023-04-23T00:45:41;99998.84;;;15.72;100.00
59971;BME280;45825;45.434;9.116;2023-04-23T00:48:07;99995.94;;;15.75;100.00
59971;BME280;45825;45.434;9.116;2023-04-23T00:50:32;100008.00;;;15.68;100.00
59971;BME280;45825;45.434;9.116;2023-04-23T00:52:58;100004.97;;;15.73;100.00
59971;BME280;45825;45.434;9.116;2023-04-23T00:55:24;100000.75;;;15.70;100.00
59971;BME280;45825;45.434;9.116;2023-04-23T00:57:49;99997.13;;;15.71;100.00
59971;BME280;45825;45.434;9.116;2023-04-23T01:00:15;100003.66;;;15.67;100.00
59971;BME280;45825;45.434;9.116;2023-04-23T01:02:41;100001.03;;;15.67;100.00
59971;BME280;45825;45.434;9.116;2023-04-23T01:05:08;100004.31;;;15.59;100.00
59971;BME280;45825;45.434;9.116;2023-04-23T01:07:35;100003.59;;;15.57;100.00
59971;BME280;45825;45.434;9.116;2023-04-23T01:10:03;100001.66;;;15.59;100.00
59971;BME280;45825;45.434;9.116;2023-04-23T01:12:29;99999.97;;;15.58;100.00
59971;BME280;45825;45.434;9.116;2023-04-23T01:14:54;99990.78;;;15.62;100.00
59971;BME280;45825;45.434;9.116;2023-04-23T01:17:20;99985.38;;;15.64;100.00
59971;BME280;45825;45.434;9.116;2023-04-23T01:19:45;99978.75;;;15.58;100.00
59971;BME280;45825;45.434;9.116;2023-04-23T01:22:12;99989.00;;;15.63;100.00
59971;BME280;45825;45.434;9.116;2023-04-23T01:24:38;99996.81;;;15.64;100.00
59971;BME280;45825;45.434;9.116;2023-04-23T01:27:04;99989.81;;;15.63;100.00
59971;BME280;45825;45.434;9.116;2023-04-23T01:29:30;100003.66;;;15.67;100.00
59971;BME280;45825;45.434;9.116;2023-04-23T01:31:56;100007.41;;;15.64;99.29
59971;BME280;45825;45.434;9.116;2023-04-23T01:34:22;100003.66;;;15.67;100.00
59971;BME280;45825;45.434;9.116;2023-04-23T01:36:47;100000.41;;;15.63;97.32
59971;BME280;45825;45.434;9.116;2023-04-23T01:39:13;100001.66;;;15.59;92.58
59971;BME280;45825;45.434;9.116;2023-04-23T01:41:39;100006.94;;;15.59;93.09
59971;BME280;45825;45.434;9.116;2023-04-23T01:44:05;100003.59;;;15.57;92.89
59971;BME280;45825;45.434;9.116;2023-04-23T01:46:30;100004.66;;;15.55;81.60
59971;BME280;45825;45.434;9.116;2023-04-23T01:48:56;100004.06;;;15.51;83.25
59971;BME280;45825;45.434;9.116;2023-04-23T01:51:21;100000.69;;;15.49;83.61
59971;BME280;45825;45.434;9.116;2023-04-23T01:53:49;100001.06;;;15.44;78.66
59971;BME280;45825;45.434;9.116;2023-04-23T01:56:15;100014.44;;;15.43;81.17
59971;BME280;45825;45.434;9.116;2023-04-23T01:58:40;100008.44;;;15.41;83.69
59971;BME280;45825;45.434;9.116;2023-04-23T02:01:06;100015.78;;;15.37;76.90
59971;BME280;45825;45.434;9.116;2023-04-23T02:03:31;100009.50;;;15.38;80.12
59971;BME280;45825;45.434;9.116;2023-04-23T02:05:58;100010.81;;;15.44;84.42
59971;BME280;45825;45.434;9.116;2023-04-23T02:08:24;99998.41;;;15.44;80.90
59971;BME280;45825;45.434;9.116;2023-04-23T02:10:50;100008.78;;;15.47;80.56
59971;BME280;45825;45.434;9.116;2023-04-23T02:13:16;100012.88;;;15.52;89.29
59971;BME280;45825;45.434;9.116;2023-04-23T02:15:41;100010.34;;;15.50;80.58
59971;BME280;45825;45.434;9.116;2023-04-23T02:18:07;100006.59;;;15.53;82.17
59971;BME280;45825;45.434;9.116;2023-04-23T02:20:32;100001.91;;;15.56;88.67
59971;BME280;45825;45.434;9.116;2023-04-23T02:23:00;99995.75;;;15.56;89.29
59971;BME280;45825;45.434;9.116;2023-04-23T02:25:26;99997.56;;;15.55;88.78
59971;BME280;45825;45.434;9.116;2023-04-23T02:27:51;100003.00;;;15.54;87.03
59971;BME280;45825;45.434;9.116;2023-04-23T02:30:16;100003.09;;;15.52;78.24
59971;BME280;45825;45.434;9.116;2023-04-23T02:32:42;100000.59;;;15.50;86.60
59971;BME280;45825;45.434;9.116;2023-04-23T02:35:08;99995.78;;;15.44;80.53
59971;BME280;45825;45.434;9.116;2023-04-23T02:37:35;99996.38;;;15.48;83.84
59971;BME280;45825;45.434;9.116;2023-04-23T02:40:01;99994.69;;;15.47;85.63
59971;BME280;45825;45.434;9.116;2023-04-23T02:42:26;99999.50;;;15.42;81.73
59971;BME280;45825;45.434;9.116;2023-04-23T02:44:51;99987.47;;;15.38;84.85
59971;BME280;45825;45.434;9.116;2023-04-23T02:47:17;99986.84;;;15.45;88.99
59971;BME280;45825;45.434;9.116;2023-04-23T02:49:42;99996.81;;;15.53;85.99
59971;BME280;45825;45.434;9.116;2023-04-23T02:52:08;99981.88;;;15.52;85.52
59971;BME280;45825;45.434;9.116;2023-04-23T02:54:33;99991.06;;;15.48;77.30
59971;BME280;45825;45.434;9.116;2023-04-23T02:57:01;99985.78;;;15.48;78.86
59971;BME280;45825;45.434;9.116;2023-04-23T02:59:26;99981.53;;;15.45;82.41
59971;BME280;45825;45.434;9.116;2023-04-23T03:01:51;99976.13;;;15.47;82.16
59971;BME280;45825;45.434;9.116;2023-04-23T03:04:17;99980.56;;;15.46;85.00
59971;BME280;45825;45.434;9.116;2023-04-23T03:06:42;99973.34;;;15.48;84.33
59971;BME280;45825;45.434;9.116;2023-04-23T03:09:07;99972.25;;;15.51;87.97
59971;BME280;45825;45.434;9.116;2023-04-23T03:11:33;99974.56;;;15.44;80.84
59971;BME280;45825;45.434;9.116;2023-04-23T03:13:58;99971.28;;;15.52;89.14
59971;BME280;45825;45.434;9.116;2023-04-23T03:16:23;99965.53;;;15.47;83.61
59971;BME280;45825;45.434;9.116;2023-04-23T03:18:49;99968.63;;;15.52;84.96
59971;BME280;45825;45.434;9.116;2023-04-23T03:21:14;99971.66;;;15.47;85.62
59971;BME280;45825;45.434;9.116;2023-04-23T03:23:39;99970.81;;;15.47;85.49
59971;BME280;45825;45.434;9.116;2023-04-23T03:26:05;99976.75;;;15.39;80.53
59971;BME280;45825;45.434;9.116;2023-04-23T03:28:31;99979.16;;;15.42;85.75
59971;BME280;45825;45.434;9.116;2023-04-23T03:30:57;99977.47;;;15.41;84.16
59971;BME280;45825;45.434;9.116;2023-04-23T03:33:22;99968.19;;;15.35;80.59
59971;BME280;45825;45.434;9.116;2023-04-23T03:35:48;99975.66;;;15.30;75.74
59971;BME280;45825;45.434;9.116;2023-04-23T03:38:13;99966.88;;;15.30;82.09
59971;BME280;45825;45.434;9.116;2023-04-23T03:40:38;99973.63;;;15.34;86.22
59971;BME280;45825;45.434;9.116;2023-04-23T03:43:04;99973.97;;;15.29;83.13
59971;BME280;45825;45.434;9.116;2023-04-23T03:45:29;99983.28;;;15.23;78.33
59971;BME280;45825;45.434;9.116;2023-04-23T03:47:55;99983.03;;;15.15;77.33
59971;BME280;45825;45.434;9.116;2023-04-23T03:50:20;99976.19;;;15.13;79.15
59971;BME280;45825;45.434;9.116;2023-04-23T03:52:45;99977.50;;;15.07;82.05
59971;BME280;45825;45.434;9.116;2023-04-23T03:55:11;99971.09;;;15.09;83.16
59971;BME280;45825;45.434;9.116;2023-04-23T03:57:36;99979.31;;;15.06;77.78
59971;BME280;45825;45.434;9.116;2023-04-23T04:00:03;99980.38;;;15.04;76.74
59971;BME280;45825;45.434;9.116;2023-04-23T04:02:29;99972.56;;;15.02;72.96
59971;BME280;45825;45.434;9.116;2023-04-23T04:04:54;99974.72;;;14.97;78.61
59971;BME280;45825;45.434;9.116;2023-04-23T04:07:20;99979.91;;;14.99;84.48
59971;BME280;45825;45.434;9.116;2023-04-23T04:09:46;99980.75;;;14.99;76.28
59971;BME280;45825;45.434;9.116;2023-04-23T04:12:13;99976.19;;;15.01;78.22
59971;BME280;45825;45.434;9.116;2023-04-23T04:14:38;99975.34;;;15.01;76.96
59971;BME280;45825;45.434;9.116;2023-04-23T04:17:04;99972.44;;;15.04;78.44
59971;BME280;45825;45.434;9.116;2023-04-23T04:19:29;99967.84;;;15.06;81.64
59971;BME280;45825;45.434;9.116;2023-04-23T04:21:54;99973.91;;;15.08;74.24
59971;BME280;45825;45.434;9.116;2023-04-23T04:24:20;99970.66;;;15.04;74.05
59971;BME280;45825;45.434;9.116;2023-04-23T04:26:45;99974.47;;;15.00;77.86
59971;BME280;45825;45.434;9.116;2023-04-23T04:29:11;99964.03;;;14.99;78.47
59971;BME280;45825;45.434;9.116;2023-04-23T04:31:36;99957.75;;;15.00;78.63
59971;BME280;45825;45.434;9.116;2023-04-23T04:34:02;99963.78;;;15.02;81.09
59971;BME280;45825;45.434;9.116;2023-04-23T04:36:28;99951.38;;;15.02;78.25
59971;BME280;45825;45.434;9.116;2023-04-23T04:38:54;99965.19;;;15.06;81.45
59971;BME280;45825;45.434;9.116;2023-04-23T04:41:20;99963.16;;;15.09;81.90
59971;BME280;45825;45.434;9.116;2023-04-23T04:43:46;99966.41;;;15.13;82.69
59971;BME280;45825;45.434;9.116;2023-04-23T04:46:12;99961.59;;;15.18;87.14
59971;BME280;45825;45.434;9.116;2023-04-23T04:48:38;99968.69;;;15.18;82.57
59971;BME280;45825;45.434;9.116;2023-04-23T04:51:03;99961.25;;;15.23;90.93
59971;BME280;45825;45.434;9.116;2023-04-23T04:53:28;99964.81;;;15.22;86.04
59971;BME280;45825;45.434;9.116;2023-04-23T04:55:53;99969.19;;;15.23;84.25
59971;BME280;45825;45.434;9.116;2023-04-23T04:58:19;99962.56;;;15.29;86.21
59971;BME280;45825;45.434;9.116;2023-04-23T05:00:44;99965.44;;;15.26;79.64
59971;BME280;45825;45.434;9.116;2023-04-23T05:03:10;99969.75;;;15.27;83.17
59971;BME280;45825;45.434;9.116;2023-04-23T05:05:36;99976.53;;;15.31;83.23
59971;BME280;45825;45.434;9.116;2023-04-23T05:08:01;99974.94;;;15.28;78.65
59971;BME280;45825;45.434;9.116;2023-04-23T05:10:27;99977.00;;;15.25;76.30
59971;BME280;45825;45.434;9.116;2023-04-23T05:12:55;99974.09;;;15.28;81.78
59971;BME280;45825;45.434;9.116;2023-04-23T05:15:21;99968.69;;;15.29;80.56
59971;BME280;45825;45.434;9.116;2023-04-23T05:17:48;99980.72;;;15.33;84.40
59971;BME280;45825;45.434;9.116;2023-04-23T05:20:17;99977.13;;;15.34;85.23
59971;BME280;45825;45.434;9.116;2023-04-23T05:22:42;99979.78;;;15.34;83.43
59971;BME280;45825;45.434;9.116;2023-04-23T05:25:09;99978.56;;;15.39;89.30
59971;BME280;45825;45.434;9.116;2023-04-23T05:27:35;99980.50;;;15.36;84.95
59971;BME280;45825;45.434;9.116;2023-04-23T05:30:02;99982.16;;;15.38;85.20
59971;BME280;45825;45.434;9.116;2023-04-23T05:32:28;99987.09;;;15.42;83.98
59971;BME280;45825;45.434;9.116;2023-04-23T05:34:53;99989.25;;;15.48;83.56
59971;BME280;45825;45.434;9.116;2023-04-23T05:37:19;99985.88;;;15.46;75.59
59971;BME280;45825;45.434;9.116;2023-04-23T05:39:44;99991.16;;;15.58;84.61
59971;BME280;45825;45.434;9.116;2023-04-23T05:42:10;99995.84;;;15.54;74.57
59971;BME280;45825;45.434;9.116;2023-04-23T05:44:35;99991.53;;;15.53;76.24
59971;BME280;45825;45.434;9.116;2023-04-23T05:47:00;99998.16;;;15.47;70.32
59971;BME280;45825;45.434;9.116;2023-04-23T05:49:26;99999.38;;;15.55;76.73
59971;BME280;45825;45.434;9.116;2023-04-23T05:51:51;100001.41;;;15.51;72.11
59971;BME280;45825;45.434;9.116;2023-04-23T05:54:17;99998.75;;;15.51;77.26
59971;BME280;45825;45.434;9.116;2023-04-23T05:56:43;100005.16;;;15.48;75.14
59971;BME280;45825;45.434;9.116;2023-04-23T05:59:08;100003.47;;;15.47;74.28
59971;BME280;45825;45.434;9.116;2023-04-23T06:01:33;100000.22;;;15.55;79.26
59971;BME280;45825;45.434;9.116;2023-04-23T06:04:00;99998.41;;;15.56;77.90
59971;BME280;45825;45.434;9.116;2023-04-23T06:06:25;99993.59;;;15.61;79.81
59971;BME280;45825;45.434;9.116;2023-04-23T06:08:52;99989.34;;;15.58;76.39
59971;BME280;45825;45.434;9.116;2023-04-23T06:11:17;99995.84;;;15.54;68.54
59971;BME280;45825;45.434;9.116;2023-04-23T06:13:42;99994.91;;;15.55;72.59
59971;BME280;45825;45.434;9.116;2023-04-23T06:16:08;99995.03;;;15.54;72.56
59971;BME280;45825;45.434;9.116;2023-04-23T06:18:34;99997.78;;;15.52;73.65
59971;BME280;45825;45.434;9.116;2023-04-23T06:20:59;100003.25;;;15.50;70.57
59971;BME280;45825;45.434;9.116;2023-04-23T06:23:31;100005.75;;;15.52;75.13
59971;BME280;45825;45.434;9.116;2023-04-23T06:25:56;100005.91;;;15.50;73.64
59971;BME280;45825;45.434;9.116;2023-04-23T06:28:23;99996.00;;;15.53;74.37
59971;BME280;45825;45.434;9.116;2023-04-23T06:30:49;100003.69;;;15.56;77.82
59971;BME280;45825;45.434;9.116;2023-04-23T06:33:14;100005.00;;;15.61;79.95
59971;BME280;45825;45.434;9.116;2023-04-23T06:35:39;99993.19;;;15.65;77.52
59971;BME280;45825;45.434;9.116;2023-04-23T06:38:05;99994.25;;;15.74;77.58
59971;BME280;45825;45.434;9.116;2023-04-23T06:40:31;99995.56;;;15.80;77.56
59971;BME280;45825;45.434;9.116;2023-04-23T06:42:56;99992.66;;;15.83;72.35
59971;BME280;45825;45.434;9.116;2023-04-23T06:45:22;99993.25;;;15.87;73.76
59971;BME280;45825;45.434;9.116;2023-04-23T06:47:48;99994.94;;;15.88;74.45
59971;BME280;45825;45.434;9.116;2023-04-23T06:50:13;100000.59;;;15.95;75.96
59971;BME280;45825;45.434;9.116;2023-04-23T06:52:39;99991.81;;;15.94;69.30
59971;BME280;45825;45.434;9.116;2023-04-23T06:55:05;99992.78;;;15.93;71.51
59971;BME280;45825;45.434;9.116;2023-04-23T06:57:30;99991.44;;;15.99;71.28
59971;BME280;45825;45.434;9.116;2023-04-23T06:59:55;99995.41;;;16.04;75.19
59971;BME280;45825;45.434;9.116;2023-04-23T07:02:21;99999.59;;;16.07;70.30
59971;BME280;45825;45.434;9.116;2023-04-23T07:04:46;99993.44;;;16.06;69.39
59971;BME280;45825;45.434;9.116;2023-04-23T07:07:11;99987.03;;;16.09;72.69
59971;BME280;45825;45.434;9.116;2023-04-23T07:09:37;99985.81;;;16.13;74.44
59971;BME280;45825;45.434;9.116;2023-04-23T07:12:02;99991.56;;;16.18;71.99
59971;BME280;45825;45.434;9.116;2023-04-23T07:14:27;99984.91;;;16.24;74.84
59971;BME280;45825;45.434;9.116;2023-04-23T07:16:53;99979.78;;;16.32;75.95
59971;BME280;45825;45.434;9.116;2023-04-23T07:19:18;99979.41;;;16.37;72.60
59971;BME280;45825;45.434;9.116;2023-04-23T07:21:44;99986.41;;;16.38;67.56
59971;BME280;45825;45.434;9.116;2023-04-23T07:24:09;99987.97;;;16.41;65.01
59971;BME280;45825;45.434;9.116;2023-04-23T07:26:35;99977.03;;;16.34;60.94
59971;BME280;45825;45.434;9.116;2023-04-23T07:29:02;99978.31;;;16.40;63.50
59971;BME280;45825;45.434;9.116;2023-04-23T07:31:28;99968.22;;;16.55;72.91
59971;BME280;45825;45.434;9.116;2023-04-23T07:33:54;99970.59;;;16.58;64.82
59971;BME280;45825;45.434;9.116;2023-04-23T07:36:20;99965.97;;;16.60;65.33
59971;BME280;45825;45.434;9.116;2023-04-23T07:38:45;99963.47;;;16.58;62.59
59971;BME280;45825;45.434;9.116;2023-04-23T07:41:11;99953.88;;;16.67;63.93
59971;BME280;45825;45.434;9.116;2023-04-23T07:43:37;99958.22;;;16.68;57.83
59971;BME280;45825;45.434;9.116;2023-04-23T07:46:02;99947.59;;;16.68;61.86
59971;BME280;45825;45.434;9.116;2023-04-23T07:48:29;99946.59;;;16.69;65.30
59971;BME280;45825;45.434;9.116;2023-04-23T07:50:55;99943.56;;;16.74;63.84
59971;BME280;45825;45.434;9.116;2023-04-23T07:53:21;99945.94;;;16.77;61.11
59971;BME280;45825;45.434;9.116;2023-04-23T07:55:46;99948.59;;;16.77;56.48
59971;BME280;45825;45.434;9.116;2023-04-23T07:58:12;99950.03;;;16.81;55.25
59971;BME280;45825;45.434;9.116;2023-04-23T08:00:37;99957.03;;;16.82;52.51
59971;BME280;45825;45.434;9.116;2023-04-23T08:03:02;99964.50;;;16.98;57.81
59971;BME280;45825;45.434;9.116;2023-04-23T08:05:27;99971.41;;;17.11;62.51
59971;BME280;45825;45.434;9.116;2023-04-23T08:07:53;99970.88;;;17.17;63.33
59971;BME280;45825;45.434;9.116;2023-04-23T08:10:18;99973.13;;;17.22;62.04
59971;BME280;45825;45.434;9.116;2023-04-23T08:12:43;99957.84;;;17.14;55.10
59971;BME280;45825;45.434;9.116;2023-04-23T08:15:09;99959.00;;;17.31;62.97
59971;BME280;45825;45.434;9.116;2023-04-23T08:17:35;99957.50;;;17.38;61.18
59971;BME280;45825;45.434;9.116;2023-04-23T08:20:00;99965.06;;;17.43;60.53
59971;BME280;45825;45.434;9.116;2023-04-23T08:22:25;99957.91;;;17.43;56.67
59971;BME280;45825;45.434;9.116;2023-04-23T08:24:51;99957.50;;;17.48;56.49
59971;BME280;45825;45.434;9.116;2023-04-23T08:27:16;99950.91;;;17.33;51.59
59971;BME280;45825;45.434;9.116;2023-04-23T08:29:41;99959.06;;;17.51;60.03
59971;BME280;45825;45.434;9.116;2023-04-23T08:32:07;99963.69;;;17.78;60.03
59971;BME280;45825;45.434;9.116;2023-04-23T08:34:32;99961.72;;;17.80;54.84
59971;BME280;45825;45.434;9.116;2023-04-23T08:36:57;99963.00;;;17.86;59.40
59971;BME280;45825;45.434;9.116;2023-04-23T08:39:22;99968.19;;;17.97;56.37
59971;BME280;45825;45.434;9.116;2023-04-23T08:41:53;99970.59;;;18.10;57.50
59971;BME280;45825;45.434;9.116;2023-04-23T08:44:24;99977.31;;;18.05;59.14
59971;BME280;45825;45.434;9.116;2023-04-23T08:46:52;99970.56;;;17.91;56.97
59971;BME280;45825;45.434;9.116;2023-04-23T08:49:18;99970.44;;;17.92;57.58
59971;BME280;45825;45.434;9.116;2023-04-23T08:51:48;99972.69;;;17.97;57.16
59971;BME280;45825;45.434;9.116;2023-04-23T08:54:26;99979.81;;;18.26;67.47
59971;BME280;45825;45.434;9.116;2023-04-23T08:56:57;99971.03;;;18.15;50.31
59971;BME280;45825;45.434;9.116;2023-04-23T08:59:24;99972.50;;;18.48;56.57
59971;BME280;45825;45.434;9.116;2023-04-23T09:01:51;99973.72;;;18.63;57.26
59971;BME280;45825;45.434;9.116;2023-04-23T09:04:17;99967.38;;;18.74;58.54
59971;BME280;45825;45.434;9.116;2023-04-23T09:06:44;99965.78;;;18.43;52.23
59971;BME280;45825;45.434;9.116;2023-04-23T09:09:12;99964.81;;;18.82;62.20
59971;BME280;45825;45.434;9.116;2023-04-23T09:11:39;99966.31;;;19.05;56.96
59971;BME280;45825;45.434;9.116;2023-04-23T09:14:05;99961.13;;;19.03;56.22
59971;BME280;45825;45.434;9.116;2023-04-23T09:16:30;99961.16;;;19.21;59.24
59971;BME280;45825;45.434;9.116;2023-04-23T09:18:57;99950.13;;;18.78;46.94
59971;BME280;45825;45.434;9.116;2023-04-23T09:21:23;99938.59;;;18.88;45.54
59971;BME280;45825;45.434;9.116;2023-04-23T09:23:51;99943.13;;;18.77;48.00
59971;BME280;45825;45.434;9.116;2023-04-23T09:26:21;99939.56;;;18.87;46.71
59971;BME280;45825;45.434;9.116;2023-04-23T09:28:49;99930.16;;;18.92;46.09
59971;BME280;45825;45.434;9.116;2023-04-23T09:31:22;99930.56;;;19.25;49.07
59971;BME280;45825;45.434;9.116;2023-04-23T09:33:53;99933.78;;;19.47;48.84
59971;BME280;45825;45.434;9.116;2023-04-23T09:36:22;99925.91;;;19.64;50.69
59971;BME280;45825;45.434;9.116;2023-04-23T09:38:49;99925.16;;;19.72;44.73
59971;BME280;45825;45.434;9.116;2023-04-23T09:41:24;99918.69;;;19.56;48.14
59971;BME280;45825;45.434;9.116;2023-04-23T09:43:52;99929.13;;;19.31;50.25
59971;BME280;45825;45.434;9.116;2023-04-23T09:46:18;99920.94;;;18.77;46.83
59971;BME280;45825;45.434;9.116;2023-04-23T09:48:43;99918.31;;;18.67;46.00
59971;BME280;45825;45.434;9.116;2023-04-23T09:51:12;99914.97;;;18.93;46.17
59971;BME280;45825;45.434;9.116;2023-04-23T09:53:42;99921.13;;;19.03;47.01
59971;BME280;45825;45.434;9.116;2023-04-23T09:56:08;99924.50;;;19.23;53.56
59971;BME280;45825;45.434;9.116;2023-04-23T09:58:33;99915.03;;;19.11;52.26
59971;BME280;45825;45.434;9.116;2023-04-23T10:01:08;99910.00;;;19.36;52.23
59971;BME280;45825;45.434;9.116;2023-04-23T10:03:34;99919.34;;;19.40;53.70
59971;BME280;45825;45.434;9.116;2023-04-23T10:05:59;99917.16;;;19.53;47.13
59971;BME280;45825;45.434;9.116;2023-04-23T10:08:26;99908.16;;;19.73;52.71
59971;BME280;45825;45.434;9.116;2023-04-23T10:10:51;99898.75;;;20.05;56.20
59971;BME280;45825;45.434;9.116;2023-04-23T10:13:17;99902.47;;;20.12;54.79
59971;BME280;45825;45.434;9.116;2023-04-23T10:15:45;99894.50;;;19.94;50.67
59971;BME280;45825;45.434;9.116;2023-04-23T10:18:13;99896.94;;;20.05;47.81
59971;BME280;45825;45.434;9.116;2023-04-23T10:20:39;99895.59;;;20.28;53.82
59971;BME280;45825;45.434;9.116;2023-04-23T10:23:07;99904.59;;;20.00;51.22
59971;BME280;45825;45.434;9.116;2023-04-23T10:25:35;99901.91;;;20.00;48.78
59971;BME280;45825;45.434;9.116;2023-04-23T10:28:03;99900.09;;;20.88;46.15
59971;BME280;45825;45.434;9.116;2023-04-23T10:30:31;99900.69;;;21.17;45.39
59971;BME280;45825;45.434;9.116;2023-04-23T10:32:59;99888.31;;;22.88;41.91
59971;BME280;45825;45.434;9.116;2023-04-23T10:35:25;99888.63;;;24.34;40.70
59971;BME280;45825;45.434;9.116;2023-04-23T10:37:51;99891.19;;;24.12;40.50
59971;BME280;45825;45.434;9.116;2023-04-23T10:40:24;99881.97;;;26.27;38.59
59971;BME280;45825;45.434;9.116;2023-04-23T10:42:53;99885.00;;;25.08;35.74
59971;BME280;45825;45.434;9.116;2023-04-23T10:45:20;99878.84;;;24.33;38.17
59971;BME280;45825;45.434;9.116;2023-04-23T10:47:46;99879.78;;;25.22;34.50
59971;BME280;45825;45.434;9.116;2023-04-23T10:50:17;99872.06;;;25.84;35.78
59971;BME280;45825;45.434;9.116;2023-04-23T10:52:43;99872.56;;;25.07;37.64
59971;BME280;45825;45.434;9.116;2023-04-23T10:55:22;99868.00;;;24.41;37.38
59971;BME280;45825;45.434;9.116;2023-04-23T10:58:04;99865.59;;;24.16;36.00
59971;BME280;45825;45.434;9.116;2023-04-23T11:05:53;99854.53;;;26.59;36.42
59971;BME280;45825;45.434;9.116;2023-04-23T11:08:18;99845.97;;;26.97;36.34
59971;BME280;45825;45.434;9.116;2023-04-23T11:10:53;99840.88;;;27.90;34.17
59971;BME280;45825;45.434;9.116;2023-04-23T11:13:26;99827.28;;;26.12;32.89
59971;BME280;45825;45.434;9.116;2023-04-23T11:16:14;99829.19;;;28.23;32.07
59971;BME280;45825;45.434;9.116;2023-04-23T11:27:00;99829.47;;;27.88;31.86
59971;BME280;45825;45.434;9.116;2023-04-23T11:29:28;99829.34;;;26.09;34.77
59971;BME280;45825;45.434;9.116;2023-04-23T11:31:55;99831.19;;;25.08;39.31
59971;BME280;45825;45.434;9.116;2023-04-23T11:34:21;99830.44;;;25.87;33.52
59971;BME280;45825;45.434;9.116;2023-04-23T11:36:49;99829.34;;;24.57;34.79
59971;BME280;45825;45.434;9.116;2023-04-23T11:39:15;99807.84;;;27.68;33.70
59971;BME280;45825;45.434;9.116;2023-04-23T11:41:43;99815.13;;;26.64;32.54
59971;BME280;45825;45.434;9.116;2023-04-23T11:44:11;99795.56;;;26.07;33.73
59971;BME280;45825;45.434;9.116;2023-04-23T11:46:36;99808.44;;;27.50;34.67
59971;BME280;45825;45.434;9.116;2023-04-23T11:49:02;99811.84;;;25.63;33.60
59971;BME280;45825;45.434;9.116;2023-04-23T11:51:27;99798.88;;;24.35;35.60
59971;BME280;45825;45.434;9.116;2023-04-23T11:53:53;99804.34;;;24.41;36.25
59971;BME280;45825;45.434;9.116;2023-04-23T11:56:18;99790.19;;;26.07;34.19
59971;BME280;45825;45.434;9.116;2023-04-23T11:58:57;99786.00;;;27.36;35.27
59971;BME280;45825;45.434;9.116;2023-04-23T12:01:23;99789.97;;;27.53;36.16
59971;BME280;45825;45.434;9.116;2023-04-23T12:03:49;99791.16;;;27.03;36.66
59971;BME280;45825;45.434;9.116;2023-04-23T12:06:17;99794.66;;;26.77;34.17
59971;BME280;45825;45.434;9.116;2023-04-23T12:08:45;99778.59;;;26.55;33.74
59971;BME280;45825;45.434;9.116;2023-04-23T12:11:11;99771.38;;;26.76;33.47
59971;BME280;45825;45.434;9.116;2023-04-23T12:13:38;99776.31;;;26.59;33.28
59971;BME280;45825;45.434;9.116;2023-04-23T12:16:04;99755.97;;;28.11;36.33
59971;BME280;45825;45.434;9.116;2023-04-23T12:18:34;99757.75;;;28.90;37.32
59971;BME280;45825;45.434;9.116;2023-04-23T12:21:11;99758.19;;;27.35;35.96
59971;BME280;45825;45.434;9.116;2023-04-23T12:23:38;99752.97;;;27.40;33.68
59971;BME280;45825;45.434;9.116;2023-04-23T12:26:08;99748.16;;;27.96;37.77
59971;BME280;45825;45.434;9.116;2023-04-23T12:28:44;99757.56;;;27.60;33.93
59971;BME280;45825;45.434;9.116;2023-04-23T12:31:10;99761.38;;;26.14;38.34
59971;BME280;45825;45.434;9.116;2023-04-23T12:33:35;99764.66;;;26.45;39.35
59971;BME280;45825;45.434;9.116;2023-04-23T12:36:00;99745.75;;;26.38;39.80
59971;BME280;45825;45.434;9.116;2023-04-23T12:38:27;99742.66;;;26.06;34.72
59971;BME280;45825;45.434;9.116;2023-04-23T12:40:57;99732.22;;;25.89;37.77
59971;BME280;45825;45.434;9.116;2023-04-23T12:43:24;99735.50;;;24.99;36.67
59971;BME280;45825;45.434;9.116;2023-04-23T12:45:50;99734.94;;;25.32;39.62
59971;BME280;45825;45.434;9.116;2023-04-23T12:48:16;99745.81;;;26.16;40.64
59971;BME280;45825;45.434;9.116;2023-04-23T12:50:44;99733.56;;;25.15;40.47
59971;BME280;45825;45.434;9.116;2023-04-23T12:53:10;99738.53;;;25.18;40.96
59971;BME280;45825;45.434;9.116;2023-04-23T12:55:35;99732.66;;;25.07;37.65
59971;BME280;45825;45.434;9.116;2023-04-23T12:58:03;99731.47;;;24.73;41.40
59971;BME280;45825;45.434;9.116;2023-04-23T13:00:28;99731.47;;;24.73;38.07
59971;BME280;45825;45.434;9.116;2023-04-23T13:02:53;99734.00;;;24.38;40.65
59971;BME280;45825;45.434;9.116;2023-04-23T13:05:19;99731.44;;;24.88;46.65
59971;BME280;45825;45.434;9.116;2023-04-23T13:07:45;99724.66;;;24.34;43.36